sensor_id;sensor_type;location;lat;lon;timestamp;temperature;humidity
42877;DHT22;42341;40.498;72.818;2022-12-18T00:00:04;3.20;93.60
42877;DHT22;42341;40.498;72.818;2022-12-18T00:02:30;3.20;93.30
42877;DHT22;42341;40.498;72.818;2022-12-18T00:04:56;3.30;93.70
42877;DHT22;42341;40.498;72.818;2022-12-18T00:07:22;3.30;93.60
42877;DHT22;42341;40.498;72.818;2022-12-18T00:09:48;3.20;93.80
42877;DHT22;42341;40.498;72.818;2022-12-18T00:12:14;3.10;94.00
42877;DHT22;42341;40.498;72.818;2022-12-18T00:14:40;3.10;93.80
42877;DHT22;42341;40.498;72.818;2022-12-18T00:17:06;3.10;93.80
42877;DHT22;42341;40.498;72.818;2022-12-18T00:19:32;3.00;94.10
42877;DHT22;42341;40.498;72.818;2022-12-18T00:21:57;3.10;93.90
42877;DHT22;42341;40.498;72.818;2022-12-18T00:24:23;3.10;94.00
42877;DHT22;42341;40.498;72.818;2022-12-18T00:26:49;3.00;94.20
42877;DHT22;42341;40.498;72.818;2022-12-18T00:29:15;3.10;94.60
42877;DHT22;42341;40.498;72.818;2022-12-18T00:31:42;3.10;94.10
42877;DHT22;42341;40.498;72.818;2022-12-18T00:34:11;3.20;94.00
42877;DHT22;42341;40.498;72.818;2022-12-18T00:36:37;3.10;94.30
42877;DHT22;42341;40.498;72.818;2022-12-18T00:39:05;3.10;94.40
42877;DHT22;42341;40.498;72.818;2022-12-18T00:41:31;3.10;94.30
42877;DHT22;42341;40.498;72.818;2022-12-18T00:44:17;3.10;94.00
42877;DHT22;42341;40.498;72.818;2022-12-18T00:46:44;3.10;94.10
42877;DHT22;42341;40.498;72.818;2022-12-18T00:49:15;3.10;94.30
42877;DHT22;42341;40.498;72.818;2022-12-18T00:51:41;3.00;94.60
42877;DHT22;42341;40.498;72.818;2022-12-18T00:54:07;3.00;94.70
42877;DHT22;42341;40.498;72.818;2022-12-18T00:56:35;3.00;94.20
42877;DHT22;42341;40.498;72.818;2022-12-18T00:59:02;3.10;94.00
42877;DHT22;42341;40.498;72.818;2022-12-18T01:01:28;3.10;93.70
42877;DHT22;42341;40.498;72.818;2022-12-18T01:03:57;3.20;93.40
42877;DHT22;42341;40.498;72.818;2022-12-18T01:06:23;3.20;93.50
42877;DHT22;42341;40.498;72.818;2022-12-18T01:08:49;3.20;92.90
42877;DHT22;42341;40.498;72.818;2022-12-18T01:11:17;3.30;92.80
42877;DHT22;42341;40.498;72.818;2022-12-18T01:13:43;3.20;92.60
42877;DHT22;42341;40.498;72.818;2022-12-18T01:16:12;3.20;92.90
42877;DHT22;42341;40.498;72.818;2022-12-18T01:18:38;3.20;93.00
42877;DHT22;42341;40.498;72.818;2022-12-18T01:21:09;3.20;92.80
42877;DHT22;42341;40.498;72.818;2022-12-18T01:23:35;3.10;93.00
42877;DHT22;42341;40.498;72.818;2022-12-18T01:26:09;3.00;93.70
42877;DHT22;42341;40.498;72.818;2022-12-18T01:28:36;2.90;94.30
42877;DHT22;42341;40.498;72.818;2022-12-18T01:31:12;2.90;94.60
42877;DHT22;42341;40.498;72.818;2022-12-18T01:33:39;2.80;94.50
42877;DHT22;42341;40.498;72.818;2022-12-18T01:36:05;2.80;93.90
42877;DHT22;42341;40.498;72.818;2022-12-18T01:38:31;3.00;93.10
42877;DHT22;42341;40.498;72.818;2022-12-18T01:40:58;3.20;92.40
42877;DHT22;42341;40.498;72.818;2022-12-18T01:43:41;3.30;91.70
42877;DHT22;42341;40.498;72.818;2022-12-18T01:46:07;3.40;91.50
42877;DHT22;42341;40.498;72.818;2022-12-18T01:48:33;3.40;91.10
42877;DHT22;42341;40.498;72.818;2022-12-18T01:51:00;3.40;91.40
42877;DHT22;42341;40.498;72.818;2022-12-18T01:53:26;3.40;91.70
42877;DHT22;42341;40.498;72.818;2022-12-18T01:55:56;3.40;91.60
42877;DHT22;42341;40.498;72.818;2022-12-18T01:58:30;3.40;91.50
42877;DHT22;42341;40.498;72.818;2022-12-18T02:00:58;3.40;91.30
42877;DHT22;42341;40.498;72.818;2022-12-18T02:03:24;3.40;91.10
42877;DHT22;42341;40.498;72.818;2022-12-18T02:08:46;3.30;91.30
42877;DHT22;42341;40.498;72.818;2022-12-18T02:14:01;3.30;91.30
42877;DHT22;42341;40.498;72.818;2022-12-18T02:16:39;3.20;91.80
42877;DHT22;42341;40.498;72.818;2022-12-18T02:21:51;3.20;91.70
42877;DHT22;42341;40.498;72.818;2022-12-18T02:24:40;3.10;91.80
42877;DHT22;42341;40.498;72.818;2022-12-18T02:27:09;3.10;91.70
42877;DHT22;42341;40.498;72.818;2022-12-18T02:30:05;3.20;91.40
42877;DHT22;42341;40.498;72.818;2022-12-18T02:32:36;3.30;91.30
42877;DHT22;42341;40.498;72.818;2022-12-18T02:35:05;3.30;90.80
42877;DHT22;42341;40.498;72.818;2022-12-18T02:37:32;3.30;91.00
42877;DHT22;42341;40.498;72.818;2022-12-18T02:39:59;3.30;91.00
42877;DHT22;42341;40.498;72.818;2022-12-18T02:42:27;3.20;91.30
42877;DHT22;42341;40.498;72.818;2022-12-18T02:44:54;3.10;91.00
42877;DHT22;42341;40.498;72.818;2022-12-18T02:47:23;3.20;90.90
42877;DHT22;42341;40.498;72.818;2022-12-18T02:50:22;3.20;90.70
42877;DHT22;42341;40.498;72.818;2022-12-18T02:53:14;3.30;90.70
42877;DHT22;42341;40.498;72.818;2022-12-18T02:56:06;3.30;90.60
42877;DHT22;42341;40.498;72.818;2022-12-18T03:04:07;3.40;91.50
42877;DHT22;42341;40.498;72.818;2022-12-18T03:06:41;3.30;91.50
42877;DHT22;42341;40.498;72.818;2022-12-18T03:09:12;3.30;91.20
42877;DHT22;42341;40.498;72.818;2022-12-18T03:11:43;3.30;92.00
42877;DHT22;42341;40.498;72.818;2022-12-18T03:14:31;3.20;91.70
42877;DHT22;42341;40.498;72.818;2022-12-18T03:17:02;3.30;92.10
42877;DHT22;42341;40.498;72.818;2022-12-18T03:19:29;3.40;91.50
42877;DHT22;42341;40.498;72.818;2022-12-18T03:21:59;3.60;90.60
42877;DHT22;42341;40.498;72.818;2022-12-18T03:24:28;3.90;90.10
42877;DHT22;42341;40.498;72.818;2022-12-18T03:27:00;4.00;89.90
42877;DHT22;42341;40.498;72.818;2022-12-18T03:29:28;4.10;89.50
42877;DHT22;42341;40.498;72.818;2022-12-18T03:32:05;4.30;88.70
42877;DHT22;42341;40.498;72.818;2022-12-18T03:34:35;4.50;88.30
42877;DHT22;42341;40.498;72.818;2022-12-18T03:37:02;4.50;88.50
42877;DHT22;42341;40.498;72.818;2022-12-18T03:39:28;4.60;86.30
42877;DHT22;42341;40.498;72.818;2022-12-18T03:42:06;4.60;85.90
42877;DHT22;42341;40.498;72.818;2022-12-18T03:44:40;4.70;86.00
42877;DHT22;42341;40.498;72.818;2022-12-18T03:50:16;4.70;84.20
42877;DHT22;42341;40.498;72.818;2022-12-18T03:52:59;4.90;85.20
42877;DHT22;42341;40.498;72.818;2022-12-18T03:55:28;4.90;84.60
42877;DHT22;42341;40.498;72.818;2022-12-18T03:57:57;5.10;84.70
42877;DHT22;42341;40.498;72.818;2022-12-18T04:00:23;5.10;84.00
42877;DHT22;42341;40.498;72.818;2022-12-18T04:02:52;5.20;84.30
42877;DHT22;42341;40.498;72.818;2022-12-18T04:05:21;5.20;84.70
42877;DHT22;42341;40.498;72.818;2022-12-18T04:07:49;5.20;85.10
42877;DHT22;42341;40.498;72.818;2022-12-18T04:10:16;5.20;85.30
42877;DHT22;42341;40.498;72.818;2022-12-18T04:12:43;5.40;85.00
42877;DHT22;42341;40.498;72.818;2022-12-18T04:15:10;5.60;83.80
42877;DHT22;42341;40.498;72.818;2022-12-18T04:17:36;5.70;83.50
42877;DHT22;42341;40.498;72.818;2022-12-18T04:20:02;5.80;83.50
42877;DHT22;42341;40.498;72.818;2022-12-18T04:22:28;5.90;81.70
42877;DHT22;42341;40.498;72.818;2022-12-18T04:24:54;6.00;81.50
42877;DHT22;42341;40.498;72.818;2022-12-18T04:27:20;6.20;79.10
42877;DHT22;42341;40.498;72.818;2022-12-18T04:29:46;6.30;78.60
42877;DHT22;42341;40.498;72.818;2022-12-18T04:32:12;6.40;79.40
42877;DHT22;42341;40.498;72.818;2022-12-18T04:34:38;6.30;80.60
42877;DHT22;42341;40.498;72.818;2022-12-18T04:37:04;6.20;83.40
42877;DHT22;42341;40.498;72.818;2022-12-18T04:39:30;6.20;84.60
42877;DHT22;42341;40.498;72.818;2022-12-18T04:41:56;6.20;84.70
42877;DHT22;42341;40.498;72.818;2022-12-18T04:44:22;6.20;84.20
42877;DHT22;42341;40.498;72.818;2022-12-18T04:46:47;6.30;83.80
42877;DHT22;42341;40.498;72.818;2022-12-18T04:49:13;6.50;83.80
42877;DHT22;42341;40.498;72.818;2022-12-18T04:51:40;6.60;83.50
42877;DHT22;42341;40.498;72.818;2022-12-18T04:54:05;6.80;83.40
42877;DHT22;42341;40.498;72.818;2022-12-18T04:56:32;7.10;82.40
42877;DHT22;42341;40.498;72.818;2022-12-18T04:58:58;11.20;80.50
42877;DHT22;42341;40.498;72.818;2022-12-18T05:01:23;15.70;71.70
42877;DHT22;42341;40.498;72.818;2022-12-18T05:03:51;19.40;61.20
42877;DHT22;42341;40.498;72.818;2022-12-18T05:06:17;22.10;52.80
42877;DHT22;42341;40.498;72.818;2022-12-18T05:08:43;23.90;48.30
42877;DHT22;42341;40.498;72.818;2022-12-18T05:11:12;25.30;45.10
42877;DHT22;42341;40.498;72.818;2022-12-18T05:13:42;26.90;42.30
42877;DHT22;42341;40.498;72.818;2022-12-18T05:16:08;26.90;40.90
42877;DHT22;42341;40.498;72.818;2022-12-18T05:18:35;26.70;39.40
42877;DHT22;42341;40.498;72.818;2022-12-18T05:21:01;27.70;38.90
42877;DHT22;42341;40.498;72.818;2022-12-18T05:23:27;27.70;38.50
42877;DHT22;42341;40.498;72.818;2022-12-18T05:25:59;27.90;37.90
42877;DHT22;42341;40.498;72.818;2022-12-18T05:28:27;28.30;37.90
42877;DHT22;42341;40.498;72.818;2022-12-18T05:30:55;28.00;36.90
42877;DHT22;42341;40.498;72.818;2022-12-18T05:33:23;28.20;37.00
42877;DHT22;42341;40.498;72.818;2022-12-18T05:35:57;29.00;36.20
42877;DHT22;42341;40.498;72.818;2022-12-18T05:38:25;28.00;36.20
42877;DHT22;42341;40.498;72.818;2022-12-18T05:40:52;27.60;36.60
42877;DHT22;42341;40.498;72.818;2022-12-18T05:43:19;27.00;36.50
42877;DHT22;42341;40.498;72.818;2022-12-18T05:45:45;22.60;38.10
42877;DHT22;42341;40.498;72.818;2022-12-18T05:48:11;18.80;42.30
42877;DHT22;42341;40.498;72.818;2022-12-18T05:50:40;16.40;45.60
42877;DHT22;42341;40.498;72.818;2022-12-18T05:53:07;14.80;48.20
42877;DHT22;42341;40.498;72.818;2022-12-18T05:55:35;13.50;50.80
42877;DHT22;42341;40.498;72.818;2022-12-18T05:58:03;12.60;52.80
42877;DHT22;42341;40.498;72.818;2022-12-18T06:00:33;12.20;54.50
42877;DHT22;42341;40.498;72.818;2022-12-18T06:03:04;11.70;55.00
42877;DHT22;42341;40.498;72.818;2022-12-18T06:05:40;11.40;55.00
42877;DHT22;42341;40.498;72.818;2022-12-18T06:08:07;11.20;55.70
42877;DHT22;42341;40.498;72.818;2022-12-18T06:10:33;11.10;56.80
42877;DHT22;42341;40.498;72.818;2022-12-18T06:12:59;11.00;56.30
42877;DHT22;42341;40.498;72.818;2022-12-18T06:15:25;10.90;56.40
42877;DHT22;42341;40.498;72.818;2022-12-18T06:17:51;11.00;56.70
42877;DHT22;42341;40.498;72.818;2022-12-18T06:20:17;11.00;56.60
42877;DHT22;42341;40.498;72.818;2022-12-18T06:22:43;10.90;57.20
42877;DHT22;42341;40.498;72.818;2022-12-18T06:25:09;10.80;56.80
42877;DHT22;42341;40.498;72.818;2022-12-18T06:27:35;10.70;56.90
42877;DHT22;42341;40.498;72.818;2022-12-18T06:30:02;10.70;57.80
42877;DHT22;42341;40.498;72.818;2022-12-18T06:32:28;10.90;57.70
42877;DHT22;42341;40.498;72.818;2022-12-18T06:34:54;10.80;58.30
42877;DHT22;42341;40.498;72.818;2022-12-18T06:37:21;10.90;57.80
42877;DHT22;42341;40.498;72.818;2022-12-18T06:39:50;10.90;58.80
42877;DHT22;42341;40.498;72.818;2022-12-18T06:42:16;10.90;59.70
42877;DHT22;42341;40.498;72.818;2022-12-18T06:44:45;10.90;58.80
42877;DHT22;42341;40.498;72.818;2022-12-18T06:47:11;11.00;59.10
42877;DHT22;42341;40.498;72.818;2022-12-18T06:49:36;11.60;57.70
42877;DHT22;42341;40.498;72.818;2022-12-18T06:52:03;12.70;56.80
42877;DHT22;42341;40.498;72.818;2022-12-18T06:54:28;16.00;53.50
42877;DHT22;42341;40.498;72.818;2022-12-18T06:56:54;20.50;47.10
42877;DHT22;42341;40.498;72.818;2022-12-18T06:59:20;24.50;41.30
42877;DHT22;42341;40.498;72.818;2022-12-18T07:01:46;27.10;39.00
42877;DHT22;42341;40.498;72.818;2022-12-18T07:04:12;28.70;36.90
42877;DHT22;42341;40.498;72.818;2022-12-18T07:06:38;29.80;35.40
42877;DHT22;42341;40.498;72.818;2022-12-18T07:09:04;29.50;34.10
42877;DHT22;42341;40.498;72.818;2022-12-18T07:11:32;27.50;34.10
42877;DHT22;42341;40.498;72.818;2022-12-18T07:13:58;22.30;37.10
42877;DHT22;42341;40.498;72.818;2022-12-18T07:16:25;18.90;41.60
42877;DHT22;42341;40.498;72.818;2022-12-18T07:18:52;16.50;45.50
42877;DHT22;42341;40.498;72.818;2022-12-18T07:21:19;14.90;49.10
42877;DHT22;42341;40.498;72.818;2022-12-18T07:23:45;13.80;51.50
42877;DHT22;42341;40.498;72.818;2022-12-18T07:26:14;13.00;53.40
42877;DHT22;42341;40.498;72.818;2022-12-18T07:28:41;12.50;55.40
42877;DHT22;42341;40.498;72.818;2022-12-18T07:31:19;12.30;55.80
42877;DHT22;42341;40.498;72.818;2022-12-18T07:33:46;11.90;56.90
42877;DHT22;42341;40.498;72.818;2022-12-18T07:36:12;11.60;57.80
42877;DHT22;42341;40.498;72.818;2022-12-18T07:38:38;11.50;58.70
42877;DHT22;42341;40.498;72.818;2022-12-18T07:41:07;11.30;59.40
42877;DHT22;42341;40.498;72.818;2022-12-18T07:43:34;11.20;60.00
42877;DHT22;42341;40.498;72.818;2022-12-18T07:46:00;11.20;59.00
42877;DHT22;42341;40.498;72.818;2022-12-18T07:48:27;11.00;60.10
42877;DHT22;42341;40.498;72.818;2022-12-18T07:50:53;10.90;60.20
42877;DHT22;42341;40.498;72.818;2022-12-18T07:53:23;10.80;60.40
42877;DHT22;42341;40.498;72.818;2022-12-18T07:55:49;10.90;60.60
42877;DHT22;42341;40.498;72.818;2022-12-18T07:58:15;10.80;60.90
42877;DHT22;42341;40.498;72.818;2022-12-18T08:00:42;10.70;60.50
42877;DHT22;42341;40.498;72.818;2022-12-18T08:03:08;10.70;60.70
42877;DHT22;42341;40.498;72.818;2022-12-18T08:05:34;10.60;60.30
42877;DHT22;42341;40.498;72.818;2022-12-18T08:08:00;10.60;60.30
42877;DHT22;42341;40.498;72.818;2022-12-18T08:10:26;10.70;59.90
42877;DHT22;42341;40.498;72.818;2022-12-18T08:12:52;10.60;60.60
42877;DHT22;42341;40.498;72.818;2022-12-18T08:15:18;10.60;60.70
42877;DHT22;42341;40.498;72.818;2022-12-18T08:17:44;10.40;60.50
42877;DHT22;42341;40.498;72.818;2022-12-18T08:20:10;10.40;60.90
42877;DHT22;42341;40.498;72.818;2022-12-18T08:22:38;10.50;59.90
42877;DHT22;42341;40.498;72.818;2022-12-18T08:25:05;10.40;61.00
42877;DHT22;42341;40.498;72.818;2022-12-18T08:27:31;10.30;61.20
42877;DHT22;42341;40.498;72.818;2022-12-18T08:29:57;10.20;61.80
42877;DHT22;42341;40.498;72.818;2022-12-18T08:32:27;10.20;62.30
42877;DHT22;42341;40.498;72.818;2022-12-18T08:34:53;10.10;62.10
42877;DHT22;42341;40.498;72.818;2022-12-18T08:37:19;10.10;62.50
42877;DHT22;42341;40.498;72.818;2022-12-18T08:39:45;10.10;63.20
42877;DHT22;42341;40.498;72.818;2022-12-18T08:42:11;10.10;62.50
42877;DHT22;42341;40.498;72.818;2022-12-18T08:44:56;10.30;62.00
42877;DHT22;42341;40.498;72.818;2022-12-18T08:47:22;10.20;62.30
42877;DHT22;42341;40.498;72.818;2022-12-18T08:49:48;10.20;62.60
42877;DHT22;42341;40.498;72.818;2022-12-18T08:52:14;10.10;62.60
42877;DHT22;42341;40.498;72.818;2022-12-18T08:54:40;10.00;62.70
42877;DHT22;42341;40.498;72.818;2022-12-18T08:57:06;10.10;62.70
42877;DHT22;42341;40.498;72.818;2022-12-18T08:59:32;10.00;62.60
42877;DHT22;42341;40.498;72.818;2022-12-18T09:01:58;10.00;62.70
42877;DHT22;42341;40.498;72.818;2022-12-18T09:04:24;9.90;62.70
42877;DHT22;42341;40.498;72.818;2022-12-18T09:06:50;10.00;62.00
42877;DHT22;42341;40.498;72.818;2022-12-18T09:09:16;9.90;62.90
42877;DHT22;42341;40.498;72.818;2022-12-18T09:11:42;10.00;63.60
42877;DHT22;42341;40.498;72.818;2022-12-18T09:14:09;9.90;63.40
42877;DHT22;42341;40.498;72.818;2022-12-18T09:16:35;10.00;63.50
42877;DHT22;42341;40.498;72.818;2022-12-18T09:19:02;10.00;64.30
42877;DHT22;42341;40.498;72.818;2022-12-18T09:21:31;10.00;64.80
42877;DHT22;42341;40.498;72.818;2022-12-18T09:23:57;10.00;65.40
42877;DHT22;42341;40.498;72.818;2022-12-18T09:26:24;9.90;65.80
42877;DHT22;42341;40.498;72.818;2022-12-18T09:28:50;9.90;66.20
42877;DHT22;42341;40.498;72.818;2022-12-18T09:31:18;9.80;66.60
42877;DHT22;42341;40.498;72.818;2022-12-18T09:33:44;9.90;66.50
42877;DHT22;42341;40.498;72.818;2022-12-18T09:36:15;9.80;66.90
42877;DHT22;42341;40.498;72.818;2022-12-18T09:38:41;9.80;66.90
42877;DHT22;42341;40.498;72.818;2022-12-18T09:44:52;9.70;68.70
42877;DHT22;42341;40.498;72.818;2022-12-18T09:47:26;9.60;69.60
42877;DHT22;42341;40.498;72.818;2022-12-18T09:49:58;9.60;70.10
42877;DHT22;42341;40.498;72.818;2022-12-18T09:52:32;9.60;70.60
42877;DHT22;42341;40.498;72.818;2022-12-18T09:57:31;9.40;72.80
42877;DHT22;42341;40.498;72.818;2022-12-18T10:00:02;9.50;73.20
42877;DHT22;42341;40.498;72.818;2022-12-18T10:02:30;9.30;73.80
42877;DHT22;42341;40.498;72.818;2022-12-18T10:10:38;9.30;76.20
42877;DHT22;42341;40.498;72.818;2022-12-18T10:16:09;9.10;78.00
42877;DHT22;42341;40.498;72.818;2022-12-18T10:19:09;9.00;78.40
42877;DHT22;42341;40.498;72.818;2022-12-18T10:24:43;8.90;80.70
42877;DHT22;42341;40.498;72.818;2022-12-18T10:27:22;8.90;81.80
42877;DHT22;42341;40.498;72.818;2022-12-18T10:29:48;8.70;82.40
42877;DHT22;42341;40.498;72.818;2022-12-18T10:32:27;8.70;83.20
42877;DHT22;42341;40.498;72.818;2022-12-18T10:34:56;8.60;83.70
42877;DHT22;42341;40.498;72.818;2022-12-18T10:37:26;8.60;84.30
42877;DHT22;42341;40.498;72.818;2022-12-18T10:40:13;8.50;85.20
42877;DHT22;42341;40.498;72.818;2022-12-18T10:42:41;8.40;86.30
42877;DHT22;42341;40.498;72.818;2022-12-18T10:45:16;8.50;86.20
42877;DHT22;42341;40.498;72.818;2022-12-18T10:47:47;8.40;86.80
42877;DHT22;42341;40.498;72.818;2022-12-18T10:50:34;8.30;87.80
42877;DHT22;42341;40.498;72.818;2022-12-18T10:53:03;8.20;88.40
42877;DHT22;42341;40.498;72.818;2022-12-18T10:55:48;8.20;89.40
42877;DHT22;42341;40.498;72.818;2022-12-18T11:01:05;8.10;90.10
42877;DHT22;42341;40.498;72.818;2022-12-18T11:03:43;8.00;90.50
42877;DHT22;42341;40.498;72.818;2022-12-18T11:08:38;7.80;91.10
42877;DHT22;42341;40.498;72.818;2022-12-18T11:11:13;7.80;91.50
42877;DHT22;42341;40.498;72.818;2022-12-18T11:13:59;7.70;91.70
42877;DHT22;42341;40.498;72.818;2022-12-18T11:16:28;7.60;92.10
42877;DHT22;42341;40.498;72.818;2022-12-18T11:19:11;7.50;92.40
42877;DHT22;42341;40.498;72.818;2022-12-18T11:21:42;7.50;92.70
42877;DHT22;42341;40.498;72.818;2022-12-18T11:24:20;7.30;93.30
42877;DHT22;42341;40.498;72.818;2022-12-18T11:26:46;7.30;93.50
42877;DHT22;42341;40.498;72.818;2022-12-18T11:29:18;7.20;93.80
42877;DHT22;42341;40.498;72.818;2022-12-18T11:31:48;7.10;94.20
42877;DHT22;42341;40.498;72.818;2022-12-18T11:34:30;7.00;94.60
42877;DHT22;42341;40.498;72.818;2022-12-18T11:36:58;6.90;95.00
42877;DHT22;42341;40.498;72.818;2022-12-18T11:47:28;6.60;96.00
42877;DHT22;42341;40.498;72.818;2022-12-18T11:50:01;6.60;96.10
42877;DHT22;42341;40.498;72.818;2022-12-18T11:52:31;6.50;96.20
42877;DHT22;42341;40.498;72.818;2022-12-18T11:55:04;6.50;96.40
42877;DHT22;42341;40.498;72.818;2022-12-18T11:57:34;6.40;96.50
42877;DHT22;42341;40.498;72.818;2022-12-18T12:00:15;6.40;96.80
42877;DHT22;42341;40.498;72.818;2022-12-18T12:03:06;6.20;96.70
42877;DHT22;42341;40.498;72.818;2022-12-18T12:13:57;5.90;97.30
42877;DHT22;42341;40.498;72.818;2022-12-18T12:16:55;5.90;97.50
42877;DHT22;42341;40.498;72.818;2022-12-18T12:30:13;5.50;98.00
42877;DHT22;42341;40.498;72.818;2022-12-18T12:35:29;5.50;98.50
42877;DHT22;42341;40.498;72.818;2022-12-18T12:38:09;5.40;98.50
42877;DHT22;42341;40.498;72.818;2022-12-18T12:40:48;5.40;98.60
42877;DHT22;42341;40.498;72.818;2022-12-18T12:48:45;5.20;99.30
42877;DHT22;42341;40.498;72.818;2022-12-18T12:51:31;5.20;99.40
42877;DHT22;42341;40.498;72.818;2022-12-18T12:53:58;5.10;99.30
42877;DHT22;42341;40.498;72.818;2022-12-18T12:56:36;5.10;99.50
42877;DHT22;42341;40.498;72.818;2022-12-18T13:04:47;4.90;99.70
42877;DHT22;42341;40.498;72.818;2022-12-18T13:07:41;4.80;99.40
42877;DHT22;42341;40.498;72.818;2022-12-18T13:13:12;4.70;99.80
42877;DHT22;42341;40.498;72.818;2022-12-18T13:20:46;4.60;99.90
42877;DHT22;42341;40.498;72.818;2022-12-18T13:25:59;4.40;99.90
42877;DHT22;42341;40.498;72.818;2022-12-18T13:31:09;4.40;99.90
42877;DHT22;42341;40.498;72.818;2022-12-18T13:33:46;4.60;99.90
42877;DHT22;42341;40.498;72.818;2022-12-18T13:39:20;4.70;99.90
42877;DHT22;42341;40.498;72.818;2022-12-18T13:44:40;4.70;99.90
42877;DHT22;42341;40.498;72.818;2022-12-18T13:47:35;4.60;99.90
42877;DHT22;42341;40.498;72.818;2022-12-18T13:50:24;4.70;99.60
42877;DHT22;42341;40.498;72.818;2022-12-18T13:52:51;4.60;99.40
42877;DHT22;42341;40.498;72.818;2022-12-18T13:55:19;4.40;99.90
42877;DHT22;42341;40.498;72.818;2022-12-18T13:57:46;4.30;99.90
42877;DHT22;42341;40.498;72.818;2022-12-18T14:00:29;4.20;99.90
42877;DHT22;42341;40.498;72.818;2022-12-18T14:02:56;4.00;99.90
42877;DHT22;42341;40.498;72.818;2022-12-18T14:05:31;4.00;99.90
42877;DHT22;42341;40.498;72.818;2022-12-18T14:08:05;3.90;99.90
42877;DHT22;42341;40.498;72.818;2022-12-18T14:10:32;3.80;99.90
42877;DHT22;42341;40.498;72.818;2022-12-18T14:13:03;3.90;99.90
42877;DHT22;42341;40.498;72.818;2022-12-18T14:15:33;3.90;99.90
42877;DHT22;42341;40.498;72.818;2022-12-18T14:20:43;3.80;99.90
42877;DHT22;42341;40.498;72.818;2022-12-18T14:23:35;3.80;99.90
42877;DHT22;42341;40.498;72.818;2022-12-18T14:26:18;3.70;99.90
42877;DHT22;42341;40.498;72.818;2022-12-18T14:28:45;3.70;99.90
42877;DHT22;42341;40.498;72.818;2022-12-18T14:31:22;3.70;99.90
42877;DHT22;42341;40.498;72.818;2022-12-18T14:33:48;3.80;99.90
42877;DHT22;42341;40.498;72.818;2022-12-18T14:36:17;3.90;99.90
42877;DHT22;42341;40.498;72.818;2022-12-18T14:38:48;4.10;99.90
42877;DHT22;42341;40.498;72.818;2022-12-18T14:41:16;4.40;99.90
42877;DHT22;42341;40.498;72.818;2022-12-18T14:43:44;4.40;99.80
42877;DHT22;42341;40.498;72.818;2022-12-18T14:46:32;4.30;99.90
42877;DHT22;42341;40.498;72.818;2022-12-18T14:49:02;4.20;99.90
42877;DHT22;42341;40.498;72.818;2022-12-18T14:51:31;4.10;99.90
42877;DHT22;42341;40.498;72.818;2022-12-18T14:54:00;4.10;99.90
42877;DHT22;42341;40.498;72.818;2022-12-18T14:56:31;4.00;99.90
42877;DHT22;42341;40.498;72.818;2022-12-18T14:59:06;3.90;99.90
42877;DHT22;42341;40.498;72.818;2022-12-18T15:02:03;3.80;99.90
42877;DHT22;42341;40.498;72.818;2022-12-18T15:04:40;3.70;99.90
42877;DHT22;42341;40.498;72.818;2022-12-18T15:09:36;3.60;99.90
42877;DHT22;42341;40.498;72.818;2022-12-18T15:12:03;3.60;99.90
42877;DHT22;42341;40.498;72.818;2022-12-18T15:17:16;3.50;99.90
42877;DHT22;42341;40.498;72.818;2022-12-18T15:19:44;3.50;99.90
42877;DHT22;42341;40.498;72.818;2022-12-18T15:22:29;3.50;99.90
42877;DHT22;42341;40.498;72.818;2022-12-18T15:24:57;3.40;99.90
42877;DHT22;42341;40.498;72.818;2022-12-18T15:27:28;3.30;99.90
42877;DHT22;42341;40.498;72.818;2022-12-18T15:30:10;3.30;99.90
42877;DHT22;42341;40.498;72.818;2022-12-18T15:32:41;3.40;99.90
42877;DHT22;42341;40.498;72.818;2022-12-18T15:37:37;3.30;99.90
42877;DHT22;42341;40.498;72.818;2022-12-18T15:40:03;3.40;99.90
42877;DHT22;42341;40.498;72.818;2022-12-18T15:42:30;3.30;99.90
42877;DHT22;42341;40.498;72.818;2022-12-18T15:45:14;3.40;99.90
42877;DHT22;42341;40.498;72.818;2022-12-18T15:47:41;3.30;99.90
42877;DHT22;42341;40.498;72.818;2022-12-18T15:50:10;3.20;99.90
42877;DHT22;42341;40.498;72.818;2022-12-18T15:52:41;3.20;99.90
42877;DHT22;42341;40.498;72.818;2022-12-18T15:55:17;3.10;99.90
42877;DHT22;42341;40.498;72.818;2022-12-18T15:58:01;3.10;99.90
42877;DHT22;42341;40.498;72.818;2022-12-18T16:00:27;3.20;99.90
42877;DHT22;42341;40.498;72.818;2022-12-18T16:02:53;3.30;99.90
42877;DHT22;42341;40.498;72.818;2022-12-18T16:05:20;3.30;99.90
42877;DHT22;42341;40.498;72.818;2022-12-18T16:07:47;3.50;99.90
42877;DHT22;42341;40.498;72.818;2022-12-18T16:10:13;3.60;99.90
42877;DHT22;42341;40.498;72.818;2022-12-18T16:12:39;3.70;99.90
42877;DHT22;42341;40.498;72.818;2022-12-18T16:15:06;3.80;99.60
42877;DHT22;42341;40.498;72.818;2022-12-18T16:17:32;3.90;99.30
42877;DHT22;42341;40.498;72.818;2022-12-18T16:19:58;4.00;99.00
42877;DHT22;42341;40.498;72.818;2022-12-18T16:22:28;4.10;98.80
42877;DHT22;42341;40.498;72.818;2022-12-18T16:24:55;4.10;98.40
42877;DHT22;42341;40.498;72.818;2022-12-18T16:27:22;4.20;97.70
42877;DHT22;42341;40.498;72.818;2022-12-18T16:29:49;4.20;97.30
42877;DHT22;42341;40.498;72.818;2022-12-18T16:32:20;4.30;97.10
42877;DHT22;42341;40.498;72.818;2022-12-18T16:34:46;4.40;96.80
42877;DHT22;42341;40.498;72.818;2022-12-18T16:37:14;4.40;96.30
42877;DHT22;42341;40.498;72.818;2022-12-18T16:39:41;4.40;95.80
42877;DHT22;42341;40.498;72.818;2022-12-18T16:44:38;4.50;95.60
42877;DHT22;42341;40.498;72.818;2022-12-18T16:47:04;4.50;95.50
42877;DHT22;42341;40.498;72.818;2022-12-18T16:49:30;4.50;95.30
42877;DHT22;42341;40.498;72.818;2022-12-18T16:51:56;4.60;94.90
42877;DHT22;42341;40.498;72.818;2022-12-18T16:54:22;4.70;94.50
42877;DHT22;42341;40.498;72.818;2022-12-18T16:56:50;4.70;94.70
42877;DHT22;42341;40.498;72.818;2022-12-18T16:59:16;4.50;95.20
42877;DHT22;42341;40.498;72.818;2022-12-18T17:01:42;4.50;94.80
42877;DHT22;42341;40.498;72.818;2022-12-18T17:04:08;4.50;94.70
42877;DHT22;42341;40.498;72.818;2022-12-18T17:06:39;4.60;94.40
42877;DHT22;42341;40.498;72.818;2022-12-18T17:09:09;4.70;94.10
42877;DHT22;42341;40.498;72.818;2022-12-18T17:11:36;4.80;93.90
42877;DHT22;42341;40.498;72.818;2022-12-18T17:14:10;4.80;93.30
42877;DHT22;42341;40.498;72.818;2022-12-18T17:16:37;4.80;93.20
42877;DHT22;42341;40.498;72.818;2022-12-18T17:19:03;4.90;93.00
42877;DHT22;42341;40.498;72.818;2022-12-18T17:21:29;4.70;93.20
42877;DHT22;42341;40.498;72.818;2022-12-18T17:23:55;4.70;93.40
42877;DHT22;42341;40.498;72.818;2022-12-18T17:26:23;4.60;93.40
42877;DHT22;42341;40.498;72.818;2022-12-18T17:28:49;4.60;93.50
42877;DHT22;42341;40.498;72.818;2022-12-18T17:31:20;4.50;93.80
42877;DHT22;42341;40.498;72.818;2022-12-18T17:33:47;4.50;93.80
42877;DHT22;42341;40.498;72.818;2022-12-18T17:36:13;4.50;93.50